الصفحة الرئيسية
METAR-TAF:

METAR-TAF

مطار :

Agadez, النيجر

دائرة عرض: 16-58N, خط طول: 007-59E, ارتفاع: 501 متر

مراقبة الطقس الحالي

تاريخ ووقت الإصدار 1ساعة و 1 دقيقة قبل الساعة 17:00UTC
ريح 12 عقدة من الشرق/الجنوب الشرقي
درجة الحرارة 37°درجة مئوية
الرطوبة 14%
ضغط 1009 hPa
الرؤية: 4000 متر
غبار

METAR: DRZA 221700Z 12012KT 4000 DU NSC 37/05 Q1009

زمن: 19:01 (18:01 UTC)

توقعات

تاريخ ووقت الإصدار 1ساعة و 1 دقيقة قبل الساعة 17:00UTC
التوقعات صالحة من22 الساعة 18 UTC إلى 23 الساعة 18 UTC
ريح 10 عقدة من الشرق/الجنوب الشرقي
الرؤية: 4000 متر
غبار
مؤقت
من 23 الساعة 08 UTC إلى 23 الساعة 14 UTC
ريح 20 عقدة من الشرق/الجنوب الشرقي
الرؤية: 0800 متر
هبوب الغبار

TAF: DRZA 221700Z 2218/2318 12010KT 4000 DU NSC TEMPO 2308/2314 12020KT 0800 BLDU

أرصاد الطقس والتوقعات من أكثر من 4000 مطار (تقارير الطقس للمطار METAR والتنبؤ بالطقس بالمطارTAF).

المحطات المتاحة هي النقط الصفراء والحمراء على الخريطة.

حرك المؤشر فوق النقطة لمعرفة اسم المحطة.

ثم انقر لمعرفة أرصاد وتوقعات الطقس.

لتغيير الخارطة: اضغط على الأزرار الخضراء مع رمز الصليب الأسود للتكبير. على الزر الأخضر مع شرطة للتصغير، أو على الأسهم الخضراء للخرائط المجاورة.


METAR-TAF: